createdAt,value
2018-09-27T00:01:54.874Z,5.97
2018-09-27T00:04:24.121Z,4.30
2018-09-27T00:06:52.971Z,3.37
2018-09-27T00:09:21.779Z,5.30
2018-09-27T00:11:50.877Z,5.70
2018-09-27T00:14:19.701Z,5.33
2018-09-27T00:16:48.543Z,4.73
2018-09-27T00:19:17.691Z,5.53
2018-09-27T00:21:46.509Z,7.07
2018-09-27T00:24:15.332Z,4.47
2018-09-27T00:26:44.434Z,7.33
2018-09-27T00:29:13.286Z,3.90
2018-09-27T00:31:49.089Z,7.00
2018-09-27T00:34:18.248Z,3.87
2018-09-27T00:36:47.065Z,63.17
2018-09-27T00:39:17.611Z,8.57
2018-09-27T00:41:52.196Z,13.67
2018-09-27T00:44:21.070Z,12.90
2018-09-27T00:46:51.009Z,4.17
2018-09-27T00:49:20.141Z,11.73
2018-09-27T00:51:48.960Z,5.60
2018-09-27T00:54:17.818Z,7.83
2018-09-27T00:56:46.956Z,5.50
2018-09-27T00:59:15.787Z,14.20
2018-09-27T01:01:45.618Z,3.60
2018-09-27T01:04:14.752Z,4.13
2018-09-27T01:06:48.827Z,6.00
2018-09-27T01:09:17.763Z,3.37
2018-09-27T01:11:46.901Z,6.37
2018-09-27T01:14:15.759Z,4.60
2018-09-27T01:16:44.644Z,7.80
2018-09-27T01:19:16.766Z,9.30
2018-09-27T01:21:45.600Z,8.23
2018-09-27T01:24:14.548Z,7.20
2018-09-27T01:26:44.137Z,5.00
2018-09-27T01:29:12.984Z,3.10
2018-09-27T01:31:41.845Z,7.97
2018-09-27T01:34:10.750Z,10.43
2018-09-27T01:36:39.611Z,8.10
2018-09-27T01:39:09.192Z,7.10
2018-09-27T01:41:38.942Z,7.63
2018-09-27T01:44:07.863Z,18.90
2018-09-27T01:46:51.244Z,7.50
2018-09-27T01:49:20.129Z,12.77
2018-09-27T01:51:49.272Z,15.77
2018-09-27T01:54:22.984Z,11.63
2018-09-27T01:56:51.859Z,9.30
2018-09-27T01:59:22.625Z,6.27
2018-09-27T02:02:02.835Z,11.97
2018-09-27T02:04:31.950Z,7.63
2018-09-27T02:07:00.820Z,9.80
2018-09-27T02:09:29.716Z,5.67
2018-09-27T02:11:58.852Z,26.17
2018-09-27T02:14:27.723Z,32.73
2018-09-27T02:16:59.882Z,23.60
2018-09-27T02:19:28.992Z,29.53
2018-09-27T02:21:57.809Z,27.87
2018-09-27T02:24:26.660Z,21.03
2018-09-27T02:26:55.800Z,34.20
2018-09-27T02:29:24.610Z,34.07
2018-09-27T02:31:53.445Z,29.93
2018-09-27T02:34:24.616Z,22.33
2018-09-27T02:36:53.457Z,20.40
2018-09-27T02:39:22.292Z,22.00
2018-09-27T02:41:51.432Z,20.70
2018-09-27T02:44:20.275Z,21.97
2018-09-27T02:46:52.824Z,14.77
2018-09-27T02:49:21.961Z,13.93
2018-09-27T02:51:50.982Z,11.30
2018-09-27T02:54:19.795Z,18.33
2018-09-27T02:56:49.026Z,19.97
2018-09-27T02:59:19.792Z,20.13
2018-09-27T03:01:48.615Z,14.03
2018-09-27T03:04:24.473Z,16.33
2018-09-27T03:06:53.305Z,16.63
2018-09-27T03:09:23.319Z,14.63
2018-09-27T03:11:52.552Z,24.30
2018-09-27T03:14:26.292Z,16.83
2018-09-27T03:16:55.124Z,23.00
2018-09-27T03:19:27.688Z,16.47
2018-09-27T03:21:56.509Z,21.10
2018-09-27T03:24:25.356Z,18.73
2018-09-27T03:30:30.390Z,18.60
2018-09-27T03:32:59.537Z,13.83
2018-09-27T03:35:32.165Z,12.47
2018-09-27T03:37:59.842Z,13.03
2018-09-27T03:40:28.982Z,20.83
2018-09-27T03:42:57.806Z,17.77
2018-09-27T03:45:26.639Z,13.13
2018-09-27T03:48:58.063Z,15.87
2018-09-27T03:51:26.883Z,32.33
2018-09-27T03:53:56.044Z,19.80
2018-09-27T03:56:24.867Z,24.87
2018-09-27T03:58:53.740Z,19.93
2018-09-27T04:01:22.925Z,23.60
2018-09-27T04:03:51.807Z,19.93
2018-09-27T04:06:22.229Z,20.20
2018-09-27T04:08:51.315Z,19.30
2018-09-27T04:11:20.209Z,25.63
2018-09-27T04:13:52.277Z,22.07
2018-09-27T04:16:21.139Z,17.53
2018-09-27T04:18:50.049Z,14.40
2018-09-27T04:21:28.521Z,15.63
2018-09-27T04:23:57.495Z,17.80
2018-09-27T04:26:26.325Z,12.10
2018-09-27T04:28:55.178Z,14.93
2018-09-27T04:31:24.024Z,19.57
2018-09-27T04:33:53.239Z,19.67
2018-09-27T04:36:22.117Z,14.47
2018-09-27T04:38:50.957Z,17.10
2018-09-27T04:41:25.223Z,21.80
2018-09-27T04:43:54.107Z,20.13
2018-09-27T04:46:22.970Z,19.17
2018-09-27T04:48:52.102Z,27.93
2018-09-27T04:51:20.974Z,29.83
2018-09-27T04:53:50.619Z,25.73
2018-09-27T04:56:19.817Z,21.50
2018-09-27T04:58:48.671Z,20.60
2018-09-27T05:01:17.497Z,19.70
2018-09-27T05:03:46.700Z,21.60
2018-09-27T05:06:15.608Z,33.37
2018-09-27T05:08:44.503Z,29.27
2018-09-27T05:11:14.016Z,19.30
2018-09-27T05:13:42.947Z,21.47
2018-09-27T05:16:12.360Z,17.70
2018-09-27T05:18:41.699Z,16.00
2018-09-27T05:21:10.898Z,16.40
2018-09-27T05:23:40.702Z,16.97
2018-09-27T05:26:10.184Z,30.17
2018-09-27T05:28:39.591Z,20.33
2018-09-27T05:31:10.422Z,14.73
2018-09-27T05:33:40.721Z,17.53
2018-09-27T05:36:10.837Z,20.60
2018-09-27T05:38:43.862Z,12.33
2018-09-27T05:41:16.366Z,17.80
2018-09-27T05:43:46.652Z,25.50
2018-09-27T05:46:17.189Z,16.63
2018-09-27T05:48:46.825Z,16.40
2018-09-27T05:51:15.943Z,10.00
2018-09-27T05:53:50.555Z,11.53
2018-09-27T05:56:19.657Z,8.87
2018-09-27T05:58:48.506Z,19.73
2018-09-27T06:01:17.904Z,10.13
2018-09-27T06:03:46.762Z,15.60
2018-09-27T06:06:18.755Z,11.73
2018-09-27T06:08:47.974Z,15.13
2018-09-27T06:11:27.841Z,11.10
2018-09-27T06:14:05.229Z,11.93
2018-09-27T06:16:34.432Z,12.37
2018-09-27T06:19:05.337Z,11.10
2018-09-27T06:21:34.227Z,17.63
2018-09-27T06:24:05.774Z,17.70
2018-09-27T06:26:35.312Z,18.97
2018-09-27T06:29:04.318Z,13.73
2018-09-27T06:31:33.169Z,17.33
2018-09-27T06:34:03.053Z,19.93
2018-09-27T06:36:31.923Z,21.13
2018-09-27T06:39:00.941Z,14.27
2018-09-27T06:41:30.198Z,19.60
2018-09-27T06:44:00.912Z,20.23
2018-09-27T06:46:30.215Z,16.00
2018-09-27T06:49:17.707Z,20.23
2018-09-27T06:51:47.212Z,22.07
2018-09-27T06:54:33.851Z,19.83
2018-09-27T06:57:13.736Z,22.83
2018-09-27T06:59:57.229Z,23.80
2018-09-27T07:02:26.491Z,25.07
2018-09-27T07:04:55.737Z,19.37
2018-09-27T07:07:24.741Z,16.60
2018-09-27T07:09:53.577Z,19.10
2018-09-27T07:12:23.549Z,17.57
2018-09-27T07:14:52.253Z,17.47
2018-09-27T07:17:21.151Z,15.77
2018-09-27T07:19:58.989Z,20.30
2018-09-27T07:22:27.861Z,22.60
2018-09-27T07:24:56.738Z,15.43
2018-09-27T07:27:28.682Z,22.67
2018-09-27T07:29:57.824Z,22.23
2018-09-27T07:32:27.354Z,17.17
2018-09-27T07:34:56.248Z,15.23
2018-09-27T07:37:25.408Z,28.30
2018-09-27T07:39:54.292Z,18.10
2018-09-27T07:42:34.191Z,18.20
2018-09-27T07:45:03.661Z,17.73
2018-09-27T07:47:34.262Z,22.37
2018-09-27T07:50:04.746Z,17.00
2018-09-27T07:52:52.790Z,16.07
2018-09-27T07:55:24.921Z,15.10
2018-09-27T07:57:54.142Z,11.97
2018-09-27T08:00:23.015Z,18.03
2018-09-27T08:02:52.005Z,18.20
2018-09-27T08:05:21.165Z,16.63
2018-09-27T08:07:50.765Z,24.37
2018-09-27T08:10:20.028Z,29.13
2018-09-27T08:12:49.213Z,20.50
2018-09-27T08:15:48.566Z,16.60
2018-09-27T08:18:17.463Z,16.10
2018-09-27T08:20:46.677Z,43.57
2018-09-27T08:23:15.597Z,22.83
2018-09-27T08:25:47.390Z,24.67
2018-09-27T08:28:16.623Z,27.00
2018-09-27T08:30:45.797Z,25.67
2018-09-27T08:33:14.604Z,32.93
2018-09-27T08:35:47.063Z,21.50
2018-09-27T08:38:16.540Z,22.70
2018-09-27T08:40:49.620Z,25.13
2018-09-27T08:43:18.612Z,32.87
2018-09-27T08:45:47.581Z,24.50
2018-09-27T08:48:16.413Z,22.30
2018-09-27T08:50:45.361Z,16.73
2018-09-27T08:53:14.549Z,27.73
2018-09-27T08:55:43.764Z,28.47
2018-09-27T08:58:12.524Z,27.20
2018-09-27T09:00:42.701Z,20.07
2018-09-27T09:03:11.547Z,21.50
2018-09-27T09:05:40.490Z,22.43
2018-09-27T09:08:09.653Z,18.13
2018-09-27T09:10:42.561Z,18.33
2018-09-27T09:13:11.403Z,15.73
2018-09-27T09:15:40.641Z,14.00
2018-09-27T09:18:09.499Z,23.97
2018-09-27T09:20:40.912Z,10.00
2018-09-27T09:23:10.080Z,17.53
2018-09-27T09:25:39.103Z,13.90
2018-09-27T09:28:08.014Z,16.57
2018-09-27T09:30:40.829Z,12.63
2018-09-27T09:33:09.737Z,15.80
2018-09-27T09:35:39.746Z,12.80
2018-09-27T09:38:08.826Z,13.03
2018-09-27T09:40:37.804Z,12.30
2018-09-27T09:43:06.716Z,10.97
2018-09-27T09:45:36.033Z,10.80
2018-09-27T09:48:05.969Z,13.17
2018-09-27T09:50:34.944Z,13.40
2018-09-27T09:53:08.329Z,25.30
2018-09-27T09:55:37.830Z,14.83
2018-09-27T09:58:12.240Z,13.47
2018-09-27T10:00:41.148Z,19.90
2018-09-27T10:03:10.230Z,16.80
2018-09-27T10:05:39.505Z,14.90
2018-09-27T10:08:08.401Z,7.33
2018-09-27T10:10:37.348Z,17.23
2018-09-27T10:13:06.570Z,15.73
2018-09-27T10:15:35.486Z,9.87
2018-09-27T10:18:05.819Z,7.73
2018-09-27T10:20:34.984Z,11.20
2018-09-27T10:23:05.089Z,9.90
2018-09-27T10:25:33.989Z,8.40
2018-09-27T10:28:04.408Z,9.53
2018-09-27T10:30:39.047Z,7.63
2018-09-27T10:33:07.945Z,10.87
2018-09-27T10:35:42.481Z,8.27
2018-09-27T10:38:11.383Z,9.53
2018-09-27T10:40:41.088Z,9.00
2018-09-27T10:43:09.906Z,10.80
2018-09-27T10:45:39.785Z,10.10
2018-09-27T10:48:08.998Z,9.97
2018-09-27T10:50:37.979Z,11.60
2018-09-27T10:53:07.194Z,22.67
2018-09-27T10:55:38.588Z,20.03
2018-09-27T10:58:08.151Z,20.53
2018-09-27T11:00:37.528Z,14.33
2018-09-27T11:03:06.879Z,13.87
2018-09-27T11:05:56.388Z,13.07
2018-09-27T11:08:26.443Z,14.40
2018-09-27T11:10:55.816Z,17.50
2018-09-27T11:13:24.695Z,15.60
2018-09-27T11:15:58.480Z,20.23
2018-09-27T11:18:32.877Z,17.53
2018-09-27T11:21:02.251Z,12.80
2018-09-27T11:23:31.674Z,13.77
2018-09-27T11:26:00.628Z,10.50
2018-09-27T11:30:41.744Z,12.00
2018-09-27T11:35:50.613Z,15.10
2018-09-27T11:38:19.480Z,16.23
2018-09-27T11:40:48.417Z,10.57
2018-09-27T11:43:17.644Z,8.93
2018-09-27T11:45:46.505Z,10.20
2018-09-27T11:48:15.416Z,10.93
2018-09-27T11:50:45.585Z,9.83
2018-09-27T11:53:20.226Z,17.03
2018-09-27T11:55:49.182Z,11.13
2018-09-27T11:58:18.393Z,8.93
2018-09-27T12:01:04.807Z,15.63
2018-09-27T12:03:51.269Z,9.10
2018-09-27T12:06:20.245Z,13.63
2018-09-27T12:08:55.372Z,10.40
2018-09-27T12:11:24.248Z,10.30
2018-09-27T12:13:54.360Z,9.63
2018-09-27T12:16:23.574Z,5.83
2018-09-27T12:18:55.925Z,8.10
2018-09-27T12:21:24.845Z,5.40
2018-09-27T12:23:54.033Z,5.13
2018-09-27T12:26:23.812Z,9.30
2018-09-27T12:28:58.152Z,3.87
2018-09-27T12:31:27.025Z,2.37
2018-09-27T12:33:55.883Z,6.90
2018-09-27T12:39:01.365Z,4.73
2018-09-27T12:41:31.479Z,2.30
2018-09-27T12:44:00.366Z,7.43
2018-09-27T12:46:29.354Z,7.70
2018-09-27T12:48:58.327Z,5.67
2018-09-27T12:51:33.368Z,8.20
2018-09-27T12:56:40.716Z,6.83
2018-09-27T12:59:09.721Z,3.13
2018-09-27T13:01:39.760Z,4.07
2018-09-27T13:04:08.805Z,1.70
2018-09-27T13:06:37.629Z,4.03
2018-09-27T13:09:09.166Z,2.07
2018-09-27T13:11:40.644Z,3.97
2018-09-27T13:14:06.968Z,3.60
2018-09-27T13:16:42.449Z,1.97
2018-09-27T13:19:11.395Z,4.57
2018-09-27T13:21:44.109Z,2.80
2018-09-27T13:24:13.036Z,2.60
2018-09-27T13:26:47.270Z,3.60
2018-09-27T13:29:16.543Z,3.93
2018-09-27T13:31:49.364Z,3.70
2018-09-27T13:34:18.266Z,3.37
2018-09-27T13:36:47.454Z,2.77
2018-09-27T13:39:16.324Z,6.20
2018-09-27T13:41:45.332Z,4.70
2018-09-27T13:44:14.527Z,3.20
2018-09-27T13:46:43.425Z,1.50
2018-09-27T13:49:12.426Z,1.80
2018-09-27T13:51:41.509Z,3.57
2018-09-27T13:54:10.355Z,2.17
2018-09-27T13:56:39.417Z,2.13
2018-09-27T13:59:08.763Z,4.83
2018-09-27T14:01:38.156Z,3.93
2018-09-27T14:04:07.206Z,2.93
2018-09-27T14:06:36.084Z,2.20
2018-09-27T14:09:06.786Z,4.97
2018-09-27T14:11:38.035Z,2.30
2018-09-27T14:14:07.053Z,3.37
2018-09-27T14:16:35.992Z,2.07
2018-09-27T14:19:04.909Z,2.70
2018-09-27T14:21:33.899Z,3.07
2018-09-27T14:24:06.456Z,2.20
2018-09-27T14:26:35.399Z,2.43
2018-09-27T14:29:04.341Z,2.80
2018-09-27T14:31:33.212Z,1.90
2018-09-27T14:34:03.945Z,2.90
2018-09-27T14:36:33.190Z,3.83
2018-09-27T14:39:02.385Z,2.00
2018-09-27T14:41:31.371Z,2.33
2018-09-27T14:44:04.454Z,3.17
2018-09-27T14:46:33.345Z,1.60
2018-09-27T14:49:08.904Z,1.67
2018-09-27T14:51:38.297Z,1.43
2018-09-27T14:54:07.709Z,7.90
2018-09-27T14:56:36.650Z,3.80
2018-09-27T14:59:06.173Z,4.07
2018-09-27T15:01:35.027Z,3.07
2018-09-27T15:04:04.919Z,3.07
2018-09-27T15:06:34.137Z,2.40
2018-09-27T15:09:04.951Z,1.63
2018-09-27T15:11:33.834Z,5.40
2018-09-27T15:14:05.031Z,4.60
2018-09-27T15:16:33.959Z,4.60
2018-09-27T15:19:02.890Z,4.50
2018-09-27T15:21:31.785Z,2.50
2018-09-27T15:24:01.344Z,2.00
2018-09-27T15:26:30.453Z,4.93
2018-09-27T15:28:59.362Z,2.87
2018-09-27T15:31:28.451Z,5.97
2018-09-27T15:33:57.612Z,2.97
2018-09-27T15:36:26.576Z,10.00
2018-09-27T15:38:55.397Z,3.40
2018-09-27T15:41:24.565Z,2.50
2018-09-27T15:43:53.566Z,5.50
2018-09-27T15:46:22.476Z,6.10
2018-09-27T15:48:51.635Z,3.63
2018-09-27T15:51:20.756Z,2.00
2018-09-27T15:53:49.663Z,3.37
2018-09-27T15:56:18.858Z,6.37
2018-09-27T15:58:47.745Z,4.50
2018-09-27T16:01:16.757Z,9.70
2018-09-27T16:03:48.068Z,9.93
2018-09-27T16:06:16.884Z,3.63
2018-09-27T16:08:45.666Z,1.90
2018-09-27T16:11:22.365Z,2.53
2018-09-27T16:13:51.209Z,2.20
2018-09-27T16:16:20.072Z,3.50
2018-09-27T16:18:48.925Z,2.67
2018-09-27T16:21:17.788Z,3.70
2018-09-27T16:23:46.976Z,11.17
2018-09-27T16:26:15.842Z,2.83
2018-09-27T16:28:44.932Z,6.17
2018-09-27T16:31:13.874Z,4.10
2018-09-27T16:33:42.723Z,4.83
2018-09-27T16:36:13.484Z,5.67
2018-09-27T16:38:42.526Z,4.97
2018-09-27T16:41:11.685Z,2.77
2018-09-27T16:43:43.734Z,7.77
2018-09-27T16:46:12.726Z,6.60
2018-09-27T16:48:42.168Z,3.17
2018-09-27T16:51:11.188Z,7.33
2018-09-27T16:53:40.272Z,7.87
2018-09-27T16:56:10.671Z,3.43
2018-09-27T16:58:39.594Z,4.20
2018-09-27T17:01:10.342Z,8.07
2018-09-27T17:03:39.877Z,4.80
2018-09-27T17:06:10.076Z,3.10
2018-09-27T17:08:40.003Z,3.60
2018-09-27T17:11:09.720Z,5.63
2018-09-27T17:13:39.290Z,2.50
2018-09-27T17:16:09.086Z,10.40
2018-09-27T17:18:38.652Z,2.70
2018-09-27T17:21:07.967Z,2.80
2018-09-27T17:23:43.204Z,2.50
2018-09-27T17:26:12.663Z,5.20
2018-09-27T17:28:46.793Z,6.90
2018-09-27T17:31:16.995Z,2.87
2018-09-27T17:33:46.891Z,3.27
2018-09-27T17:36:16.769Z,9.70
2018-09-27T17:38:47.282Z,6.47
2018-09-27T17:41:16.964Z,4.07
2018-09-27T17:43:46.700Z,3.87
2018-09-27T17:46:16.304Z,6.63
2018-09-27T17:48:46.158Z,4.00
2018-09-27T17:51:15.956Z,2.10
2018-09-27T17:56:17.479Z,2.17
2018-09-27T17:58:48.243Z,4.77
2018-09-27T18:01:18.030Z,3.57
2018-09-27T18:03:47.993Z,3.70
2018-09-27T18:06:17.604Z,8.23
2018-09-27T18:08:47.285Z,4.33
2018-09-27T18:11:17.547Z,11.70
2018-09-27T18:13:48.165Z,6.33
2018-09-27T18:16:17.859Z,14.13
2018-09-27T18:18:47.964Z,5.17
2018-09-27T18:21:17.617Z,17.13
2018-09-27T18:23:50.046Z,5.97
2018-09-27T18:26:22.076Z,6.70
2018-09-27T18:28:52.740Z,9.40
2018-09-27T18:31:22.632Z,8.10
2018-09-27T18:33:52.709Z,5.97
2018-09-27T18:36:22.373Z,10.13
2018-09-27T18:38:52.021Z,8.73
2018-09-27T18:41:22.482Z,4.90
2018-09-27T18:43:52.255Z,5.67
2018-09-27T18:46:22.708Z,7.10
2018-09-27T18:48:55.598Z,12.83
2018-09-27T18:51:25.276Z,3.90
2018-09-27T18:53:54.904Z,11.73
2018-09-27T19:02:07.556Z,10.43
2018-09-27T19:04:37.244Z,10.43
2018-09-27T19:07:06.923Z,7.00
2018-09-27T19:09:41.825Z,8.80
2018-09-27T19:12:11.789Z,14.37
2018-09-27T19:14:42.314Z,8.40
2018-09-27T19:17:12.371Z,4.90
2018-09-27T19:19:41.854Z,9.60
2018-09-27T19:22:15.584Z,6.13
2018-09-27T19:24:45.187Z,6.80
2018-09-27T19:27:14.813Z,13.53
2018-09-27T19:29:45.823Z,14.50
2018-09-27T19:32:16.347Z,20.47
2018-09-27T19:34:46.180Z,8.47
2018-09-27T19:37:16.198Z,6.23
2018-09-27T19:39:52.672Z,16.83
2018-09-27T19:42:22.560Z,8.07
2018-09-27T19:44:52.348Z,7.57
2018-09-27T19:47:22.000Z,15.07
2018-09-27T19:49:52.113Z,13.33
2018-09-27T19:52:23.051Z,7.60
2018-09-27T19:54:52.797Z,11.00
2018-09-27T19:57:22.402Z,10.53
2018-09-27T19:59:52.453Z,15.20
2018-09-27T20:02:22.794Z,13.20
2018-09-27T20:04:53.847Z,12.10
2018-09-27T20:07:24.565Z,12.20
2018-09-27T20:09:54.233Z,12.20
2018-09-27T20:12:24.811Z,11.43
2018-09-27T20:17:29.881Z,15.80
2018-09-27T20:19:59.605Z,42.20
2018-09-27T20:22:29.972Z,11.10
2018-09-27T20:24:59.653Z,6.93
2018-09-27T20:27:29.308Z,9.40
2018-09-27T20:29:59.341Z,7.90
2018-09-27T20:32:36.888Z,13.10
2018-09-27T20:35:09.203Z,14.83
2018-09-27T20:37:42.515Z,10.63
2018-09-27T20:40:12.088Z,11.13
2018-09-27T20:42:42.893Z,12.93
2018-09-27T20:45:12.575Z,20.93
2018-09-27T20:47:45.176Z,10.77
2018-09-27T20:50:15.101Z,13.57
2018-09-27T20:52:44.803Z,9.43
2018-09-27T20:55:16.360Z,10.70
2018-09-27T20:57:45.940Z,13.37
2018-09-27T21:00:15.791Z,12.93
2018-09-27T21:02:55.327Z,10.03
2018-09-27T21:05:29.551Z,8.40
2018-09-27T21:07:59.184Z,10.63
2018-09-27T21:10:31.820Z,7.20
2018-09-27T21:13:05.757Z,9.30
2018-09-27T21:15:35.299Z,15.53
2018-09-27T21:18:06.513Z,15.83
2018-09-27T21:20:35.335Z,9.23
2018-09-27T21:23:04.230Z,14.77
2018-09-27T21:25:33.178Z,11.23
2018-09-27T21:28:04.464Z,10.70
2018-09-27T21:30:38.835Z,6.30
2018-09-27T21:33:07.813Z,12.10
2018-09-27T21:35:36.620Z,17.47
2018-09-27T21:38:06.345Z,10.87
2018-09-27T21:40:35.187Z,10.53
2018-09-27T21:43:04.063Z,7.57
2018-09-27T21:45:33.213Z,12.00
2018-09-27T21:48:02.698Z,17.57
2018-09-27T21:50:31.513Z,13.00
2018-09-27T21:53:00.671Z,9.57
2018-09-27T21:55:29.563Z,10.67
2018-09-27T21:57:58.342Z,6.17
2018-09-27T22:00:27.655Z,22.10
2018-09-27T22:02:57.076Z,17.23
2018-09-27T22:05:25.904Z,16.83
2018-09-27T22:07:54.990Z,7.50
2018-09-27T22:10:23.788Z,13.47
2018-09-27T22:12:52.796Z,6.47
2018-09-27T22:17:55.415Z,11.30
2018-09-27T22:20:24.277Z,5.43
2018-09-27T22:22:53.545Z,12.20
2018-09-27T22:25:23.159Z,13.20
2018-09-27T22:27:52.254Z,14.73
2018-09-27T22:30:22.148Z,14.80
2018-09-27T22:32:51.132Z,8.53
2018-09-27T22:35:20.009Z,10.03
2018-09-27T22:37:49.120Z,12.27
2018-09-27T22:40:17.922Z,12.23
2018-09-27T22:42:46.788Z,10.77
2018-09-27T22:45:15.900Z,10.63
2018-09-27T22:47:48.297Z,18.00
2018-09-27T22:50:17.049Z,14.37
2018-09-27T22:52:50.111Z,13.33
2018-09-27T22:55:18.969Z,14.97
2018-09-27T22:57:47.782Z,18.93
2018-09-27T23:00:16.915Z,12.77
2018-09-27T23:02:45.883Z,11.40
2018-09-27T23:05:14.717Z,10.03
2018-09-27T23:07:43.810Z,16.70
2018-09-27T23:10:12.606Z,15.07
2018-09-27T23:12:41.441Z,9.77
2018-09-27T23:18:01.132Z,12.87
2018-09-27T23:20:30.436Z,14.50
2018-09-27T23:22:59.277Z,14.63
2018-09-27T23:25:28.068Z,14.97
2018-09-27T23:28:00.769Z,14.63
2018-09-27T23:30:29.640Z,14.67
2018-09-27T23:32:58.795Z,13.80
2018-09-27T23:35:27.576Z,14.30
2018-09-27T23:37:56.334Z,15.37
2018-09-27T23:40:25.136Z,10.90
2018-09-27T23:42:53.985Z,11.13
2018-09-27T23:45:22.973Z,14.33
2018-09-27T23:47:51.856Z,16.00
2018-09-27T23:50:23.615Z,15.17
2018-09-27T23:52:52.789Z,14.80
2018-09-27T23:55:21.611Z,12.10
2018-09-27T23:57:50.461Z,16.03
